createdAt,value
2022-10-09T00:00:04.202Z,102026.50
2022-10-09T00:05:05.849Z,102020.63
2022-10-09T00:10:07.325Z,102022.75
2022-10-09T00:15:08.816Z,102017.00
2022-10-09T00:20:10.190Z,102010.97
2022-10-09T00:25:11.579Z,102010.88
2022-10-09T00:30:12.960Z,102017.09
2022-10-09T00:35:14.266Z,102015.22
2022-10-09T00:40:15.975Z,102008.72
2022-10-09T00:45:19.275Z,102014.97
2022-10-09T00:50:30.666Z,102012.41
2022-10-09T00:55:34.147Z,102016.34
2022-10-09T01:00:35.506Z,102010.94
2022-10-09T01:05:45.966Z,102013.66
2022-10-09T01:10:59.163Z,102015.31
2022-10-09T01:16:03.785Z,102016.78
2022-10-09T01:21:05.112Z,102013.03
2022-10-09T01:26:17.366Z,102012.44
2022-10-09T01:31:19.043Z,102022.28
2022-10-09T01:36:21.482Z,102009.97
2022-10-09T01:41:22.916Z,102005.69
2022-10-09T01:46:31.786Z,101994.06
2022-10-09T01:51:38.591Z,101996.97
2022-10-09T01:56:40.679Z,101996.50
2022-10-09T02:01:42.766Z,101989.59
2022-10-09T02:06:45.823Z,101989.84
2022-10-09T02:11:51.042Z,101986.56
2022-10-09T02:16:56.923Z,101987.75
2022-10-09T02:22:01.180Z,101990.72
2022-10-09T02:27:02.802Z,101986.50
2022-10-09T02:32:04.120Z,101986.50
2022-10-09T02:37:05.724Z,101987.19
2022-10-09T02:42:07.029Z,101986.88
2022-10-09T02:47:08.478Z,101986.50
2022-10-09T02:52:09.828Z,101989.47
2022-10-09T02:57:11.144Z,101989.38
2022-10-09T03:02:12.498Z,101988.41
2022-10-09T03:07:13.941Z,101976.75
2022-10-09T03:12:21.102Z,101977.84
2022-10-09T03:17:22.445Z,101976.88
2022-10-09T03:22:23.756Z,101981.72
2022-10-09T03:27:25.084Z,101982.53
2022-10-09T03:32:26.797Z,101978.78
2022-10-09T03:37:28.150Z,101971.63
2022-10-09T03:42:29.522Z,101971.47
2022-10-09T03:47:31.161Z,101970.56
2022-10-09T03:52:32.459Z,101969.25
2022-10-09T03:57:33.867Z,101968.78
2022-10-09T04:02:35.323Z,101967.63
2022-10-09T04:07:36.667Z,101973.38
2022-10-09T04:12:38.016Z,101969.41
2022-10-09T04:17:39.324Z,101962.56
2022-10-09T04:22:40.621Z,101968.69
2022-10-09T04:27:41.979Z,101959.38
2022-10-09T04:32:43.279Z,101956.81
2022-10-09T04:37:44.605Z,101949.88
2022-10-09T04:42:46.018Z,101952.56
2022-10-09T04:47:47.434Z,101953.16
2022-10-09T04:52:48.979Z,101946.34
2022-10-09T04:57:50.476Z,101940.44
2022-10-09T05:02:52.075Z,101938.81
2022-10-09T05:07:53.573Z,101939.88
2022-10-09T05:12:54.910Z,101938.81
2022-10-09T05:17:56.296Z,101936.22
2022-10-09T05:22:57.626Z,101939.88
2022-10-09T05:28:00.275Z,101946.34
2022-10-09T05:33:01.569Z,101945.28
2022-10-09T05:38:02.871Z,101938.47
2022-10-09T05:43:04.169Z,101946.34
2022-10-09T05:48:05.544Z,101950.28
2022-10-09T05:53:06.845Z,101947.25
2022-10-09T05:58:08.163Z,101940.72
2022-10-09T06:03:09.458Z,101941.88
2022-10-09T06:08:10.761Z,101939.66
2022-10-09T06:13:12.058Z,101942.34
2022-10-09T06:18:13.353Z,101946.78
2022-10-09T06:23:14.658Z,101938.59
2022-10-09T06:28:16.012Z,101931.47
2022-10-09T06:33:17.405Z,101937.00
2022-10-09T06:38:18.704Z,101927.28
2022-10-09T06:43:20.050Z,101932.06
2022-10-09T06:48:21.367Z,101943.88
2022-10-09T06:53:22.667Z,101938.09
2022-10-09T06:58:24.088Z,101946.31
2022-10-09T07:03:25.385Z,101947.53
2022-10-09T07:08:26.697Z,101951.22
2022-10-09T07:13:29.367Z,101950.06
2022-10-09T07:18:31.614Z,101953.19
2022-10-09T07:23:33.675Z,101954.72
2022-10-09T07:28:35.157Z,101951.84
2022-10-09T07:33:36.571Z,101953.63
2022-10-09T07:38:37.928Z,101945.44
2022-10-09T07:43:39.848Z,101943.16
2022-10-09T07:48:41.427Z,101932.25
2022-10-09T07:53:43.461Z,101938.59
2022-10-09T07:58:49.407Z,101931.81
2022-10-09T08:03:50.786Z,101928.94
2022-10-09T08:08:53.090Z,101925.25
2022-10-09T08:13:54.552Z,101917.09
2022-10-09T08:18:59.522Z,101908.53
2022-10-09T08:24:01.022Z,101906.41
2022-10-09T08:29:03.530Z,101905.72
2022-10-09T08:34:05.224Z,101901.13
2022-10-09T08:39:06.555Z,101898.19
2022-10-09T08:44:09.616Z,101897.25
2022-10-09T08:49:18.267Z,101881.88
2022-10-09T08:54:24.978Z,101882.66
2022-10-09T08:59:26.852Z,101877.59
2022-10-09T09:04:34.196Z,101880.09
2022-10-09T09:09:35.490Z,101860.25
2022-10-09T09:14:47.459Z,101858.31
2022-10-09T09:20:01.240Z,101857.97
2022-10-09T09:25:14.426Z,101840.81
2022-10-09T09:30:21.551Z,101822.66
2022-10-09T09:35:34.154Z,101814.53
2022-10-09T09:40:37.789Z,101817.97
2022-10-09T09:45:39.607Z,101800.94
2022-10-09T09:50:50.631Z,101796.88
2022-10-09T09:56:01.227Z,101786.28
2022-10-09T10:01:03.466Z,101778.78
2022-10-09T10:06:04.951Z,101777.47
2022-10-09T10:11:07.058Z,101757.38
2022-10-09T10:16:08.829Z,101757.34
2022-10-09T10:21:14.115Z,101743.94
2022-10-09T10:26:24.575Z,101737.13
2022-10-09T10:31:44.795Z,101728.38
2022-10-09T10:36:46.882Z,101721.53
2022-10-09T10:41:51.287Z,101722.31
2022-10-09T10:47:01.648Z,101698.91
2022-10-09T10:52:12.094Z,101697.25
2022-10-09T10:57:13.384Z,101691.31
2022-10-09T11:02:32.000Z,101687.97
2022-10-09T11:07:45.823Z,101673.94
2022-10-09T11:12:52.483Z,101670.34
2022-10-09T11:17:59.675Z,101667.53
2022-10-09T11:23:20.004Z,101649.34
2022-10-09T11:28:27.129Z,101645.03
2022-10-09T11:33:36.827Z,101637.06
2022-10-09T11:38:40.769Z,101623.72
2022-10-09T11:43:52.643Z,101621.66
2022-10-09T11:49:17.380Z,101616.66
2022-10-09T11:54:20.384Z,101610.88
2022-10-09T11:59:25.745Z,101599.19
2022-10-09T12:09:57.487Z,101588.44
2022-10-09T12:15:10.118Z,101575.72
2022-10-09T12:20:19.390Z,101567.84
2022-10-09T12:25:40.617Z,101548.81
2022-10-09T12:30:47.828Z,101544.13
2022-10-09T12:35:58.809Z,101530.31
2022-10-09T12:41:05.512Z,101520.91
2022-10-09T12:46:06.963Z,101505.50
2022-10-09T12:51:19.378Z,101506.75
2022-10-09T12:56:22.966Z,101496.16
2022-10-09T13:01:24.565Z,101489.25
2022-10-09T13:06:27.226Z,101484.63
2022-10-09T13:11:32.179Z,101470.59
2022-10-09T13:16:44.708Z,101468.84
2022-10-09T13:21:46.058Z,101467.13
2022-10-09T13:26:47.398Z,101458.59
2022-10-09T13:31:48.771Z,101443.47
2022-10-09T13:36:50.462Z,101439.66
2022-10-09T13:41:55.440Z,101428.53
2022-10-09T13:46:56.906Z,101408.59
2022-10-09T13:51:58.278Z,101407.41
2022-10-09T13:56:59.686Z,101400.13
2022-10-09T14:02:01.107Z,101388.41
2022-10-09T14:07:02.549Z,101405.31
2022-10-09T14:12:03.989Z,101381.28
2022-10-09T14:17:05.356Z,101359.50
2022-10-09T14:22:06.704Z,101366.19
2022-10-09T14:27:08.019Z,101352.63
2022-10-09T14:32:09.323Z,101341.78
2022-10-09T14:37:23.754Z,101332.66
2022-10-09T14:42:31.392Z,101326.50
2022-10-09T14:47:32.695Z,101314.19
2022-10-09T14:52:33.992Z,101321.53
2022-10-09T14:57:35.848Z,101313.59
2022-10-09T15:02:37.308Z,101308.16
2022-10-09T15:07:38.659Z,101295.69
2022-10-09T15:12:40.888Z,101293.94
2022-10-09T15:17:42.245Z,101286.31
2022-10-09T15:22:43.718Z,101275.06
2022-10-09T15:27:45.020Z,101275.75
2022-10-09T15:32:46.326Z,101264.88
2022-10-09T15:37:49.389Z,101262.72
2022-10-09T15:42:53.028Z,101261.38
2022-10-09T15:47:54.482Z,101254.94
2022-10-09T15:52:57.586Z,101247.50
2022-10-09T15:57:58.897Z,101233.06
2022-10-09T16:03:00.221Z,101243.28
2022-10-09T16:08:01.575Z,101236.84
2022-10-09T16:13:03.114Z,101228.66
2022-10-09T16:18:04.513Z,101227.50
2022-10-09T16:23:06.554Z,101226.38
2022-10-09T16:28:09.026Z,101225.63
2022-10-09T16:33:12.863Z,101226.44
2022-10-09T16:38:14.976Z,101228.44
2022-10-09T16:43:16.623Z,101235.81
2022-10-09T16:48:17.919Z,101238.47
2022-10-09T16:53:19.266Z,101229.47
2022-10-09T16:58:20.575Z,101236.41
2022-10-09T17:03:21.906Z,101242.66
2022-10-09T17:08:23.195Z,101243.53
2022-10-09T17:13:24.527Z,101241.38
2022-10-09T17:18:25.874Z,101251.53
2022-10-09T17:23:27.176Z,101243.88
2022-10-09T17:28:28.806Z,101236.06
2022-10-09T17:33:30.153Z,101237.03
2022-10-09T17:38:31.468Z,101236.38
2022-10-09T17:43:33.120Z,101238.91
2022-10-09T17:48:34.696Z,101233.53
2022-10-09T17:53:36.011Z,101226.19
2022-10-09T17:58:37.875Z,101230.34
2022-10-09T18:03:39.196Z,101228.50
2022-10-09T18:08:40.510Z,101229.59
2022-10-09T18:13:42.503Z,101216.97
2022-10-09T18:18:44.018Z,101217.50
2022-10-09T18:23:45.987Z,101221.31
2022-10-09T18:28:48.632Z,101217.16
2022-10-09T18:33:50.727Z,101210.34
2022-10-09T18:38:53.524Z,101210.72
2022-10-09T18:43:54.980Z,101208.28
2022-10-09T18:48:56.532Z,101198.91
2022-10-09T18:54:00.155Z,101198.41
2022-10-09T18:59:03.626Z,101196.31
2022-10-09T19:04:04.950Z,101184.47
2022-10-09T19:09:06.311Z,101177.00
2022-10-09T19:14:07.609Z,101181.56
2022-10-09T19:19:08.939Z,101184.81
2022-10-09T19:24:11.231Z,101177.97
2022-10-09T19:29:12.579Z,101175.38
2022-10-09T19:34:14.132Z,101182.03
2022-10-09T19:39:15.889Z,101182.03
2022-10-09T19:44:17.516Z,101181.69
2022-10-09T19:49:18.791Z,101174.19
2022-10-09T19:54:20.084Z,101175.16
2022-10-09T19:59:21.384Z,101165.53
2022-10-09T20:04:22.686Z,101166.50
2022-10-09T20:09:24.008Z,101167.94
2022-10-09T20:14:25.543Z,101160.63
2022-10-09T20:19:30.749Z,101166.59
2022-10-09T20:24:32.170Z,101156.19
2022-10-09T20:29:33.472Z,101166.19
2022-10-09T20:34:34.782Z,101166.59
2022-10-09T20:39:36.104Z,101167.56
2022-10-09T20:44:37.614Z,101150.47
2022-10-09T20:49:38.922Z,101152.06
2022-10-09T20:54:40.324Z,101139.50
2022-10-09T20:59:41.686Z,101145.66
2022-10-09T21:04:42.987Z,101147.38
2022-10-09T21:09:44.305Z,101148.78
2022-10-09T21:14:45.767Z,101138.88
2022-10-09T21:19:48.510Z,101142.22
2022-10-09T21:24:49.919Z,101140.88
2022-10-09T21:29:51.226Z,101134.88
2022-10-09T21:34:52.550Z,101145.75
2022-10-09T21:39:54.082Z,101136.53
2022-10-09T21:44:55.382Z,101135.34
2022-10-09T21:49:56.686Z,101136.44
2022-10-09T21:54:57.999Z,101133.81
2022-10-09T21:59:59.316Z,101123.34
2022-10-09T22:05:00.650Z,101133.66
2022-10-09T22:10:02.702Z,101123.09
2022-10-09T22:15:04.290Z,101130.56
2022-10-09T22:20:05.787Z,101129.28
2022-10-09T22:25:07.339Z,101116.63
2022-10-09T22:30:08.907Z,101113.31
2022-10-09T22:35:10.219Z,101109.34
2022-10-09T22:40:11.514Z,101099.84
2022-10-09T22:45:12.814Z,101107.03
2022-10-09T22:50:14.159Z,101108.78
2022-10-09T22:55:15.465Z,101087.88
2022-10-09T23:00:16.806Z,101093.34
2022-10-09T23:05:18.106Z,101085.88
2022-10-09T23:10:19.432Z,101085.06
2022-10-09T23:15:20.740Z,101083.13
2022-10-09T23:20:22.057Z,101081.19
2022-10-09T23:25:23.434Z,101073.06
2022-10-09T23:30:24.733Z,101074.22
2022-10-09T23:35:26.103Z,101071.72
2022-10-09T23:40:27.421Z,101066.22
2022-10-09T23:45:28.751Z,101070.72
2022-10-09T23:50:30.051Z,101059.13
2022-10-09T23:55:31.354Z,101064.78
